Time;durP1;ratioP1;P1;durP2;ratioP2;P2;SDS_P1;SDS_P2;PMS_P1;PMS_P2;Temp;Humidity;BMP_temperature;BMP_pressure;BME280_temperature;BME280_humidity;BME280_pressure;Samples;Min_cycle;Max_cycle;Signal;HPM_P1;HPM_P2
2021/06/07 00:01:46;;;;;;;26.87;24.00;;;;;;;15.74;100.00;101563.47;5006685;28;20264;-75
2021/06/07 00:04:15;;;;;;;26.70;23.90;;;;;;;15.65;100.00;101566.00;4980472;28;20849;-75
2021/06/07 00:06:41;;;;;;;26.97;23.73;;;;;;;15.72;100.00;101565.69;4979618;28;20220;-74
2021/06/07 00:09:13;;;;;;;25.88;23.27;;;;;;;15.76;100.00;101569.50;4980195;28;20387;-75
2021/06/07 00:11:41;;;;;;;26.37;23.67;;;;;;;15.76;100.00;101569.50;5028215;28;20721;-76
2021/06/07 00:14:09;;;;;;;26.27;23.43;;;;;;;15.77;100.00;101566.47;4980289;28;20180;-75
2021/06/07 00:16:37;;;;;;;25.57;22.73;;;;;;;15.80;100.00;101569.47;5011936;28;20220;-75
2021/06/07 00:19:14;;;;;;;27.70;23.53;;;;;;;15.79;100.00;101572.50;5013069;28;20197;-75
2021/06/07 00:21:40;;;;;;;26.53;23.73;;;;;;;15.85;100.00;101574.91;5008538;28;20232;-74
2021/06/07 00:24:07;;;;;;;26.00;23.40;;;;;;;15.90;100.00;101574.06;5029119;28;20188;-74
2021/06/07 00:26:33;;;;;;;26.30;23.40;;;;;;;15.88;100.00;101568.84;4994938;28;20606;-74
2021/06/07 00:28:59;;;;;;;25.80;22.90;;;;;;;15.88;100.00;101568.84;5012640;28;20246;-75
2021/06/07 00:31:26;;;;;;;25.83;22.97;;;;;;;15.92;100.00;101560.88;5011340;28;20228;-74
2021/06/07 00:33:52;;;;;;;25.47;22.87;;;;;;;15.92;100.00;101560.88;5027647;28;20199;-74
2021/06/07 00:36:22;;;;;;;25.07;22.57;;;;;;;-138.14;100.00;78272.94;5006999;28;20227;-74
2021/06/07 00:38:51;;;;;;;25.00;22.47;;;;;;;-138.14;100.00;63448.66;4996612;28;20208;-74
2021/06/07 00:41:24;;;;;;;25.55;22.85;;;;;;;-138.14;100.00;101560.88;4995622;28;20291;-73
2021/06/07 00:43:58;;;;;;;25.70;23.03;;;;;;;15.92;100.00;101560.88;5032758;28;20556;-75
2021/06/07 00:46:24;;;;;;;25.27;22.50;;;;;;;15.92;100.00;101560.88;5013716;28;20606;-74
2021/06/07 00:48:51;;;;;;;25.63;22.65;;;;;;;15.92;100.00;101560.88;4999509;28;20208;-74
2021/06/07 00:51:17;;;;;;;25.90;22.90;;;;;;;15.92;100.00;101560.88;4981763;28;20867;-74
2021/06/07 00:53:43;;;;;;;25.63;23.10;;;;;;;15.68;100.00;101573.66;4998108;28;20192;-74
2021/06/07 00:56:11;;;;;;;26.73;23.92;;;;;;;15.78;100.00;101568.91;4998446;28;20239;-74
2021/06/07 00:58:46;;;;;;;27.02;24.15;;;;;;;15.58;100.00;101572.88;4999649;28;20697;-75
2021/06/07 01:01:14;;;;;;;26.77;23.42;;;;;;;15.43;100.00;101568.28;5014902;28;20740;-74
2021/06/07 01:03:41;;;;;;;28.52;24.08;;;;;;;15.24;100.00;101566.50;4998855;28;20270;-73
2021/06/07 01:06:07;;;;;;;26.27;23.38;;;;;;;15.46;100.00;101562.28;4998116;28;20232;-75
2021/06/07 01:08:33;;;;;;;27.42;24.50;;;;;;;15.58;100.00;101570.94;5015380;28;20246;-73
2021/06/07 01:11:00;;;;;;;27.17;23.90;;;;;;;15.44;100.00;101572.69;5014313;28;20286;-74
2021/06/07 01:13:29;;;;;;;27.93;23.70;;;;;;;15.46;100.00;101569.69;4999230;28;20200;-75
2021/06/07 01:15:56;;;;;;;26.27;23.50;;;;;;;15.62;100.00;101571.22;4998679;28;20264;-75
2021/06/07 01:18:23;;;;;;;26.45;23.60;;;;;;;15.69;100.00;101569.78;4983863;28;20335;-75
2021/06/07 01:20:51;;;;;;;27.13;24.17;;;;;;;15.72;100.00;101568.44;4982156;28;20227;-74
2021/06/07 01:23:17;;;;;;;26.87;24.07;;;;;;;15.83;100.00;101566.13;4999147;28;20650;-74
2021/06/07 01:25:43;;;;;;;26.27;23.50;;;;;;;15.68;100.00;101553.66;4998124;28;20224;-75
2021/06/07 01:28:12;;;;;;;28.17;23.13;;;;;;;15.64;100.00;101560.78;4998719;28;20199;-74
2021/06/07 01:30:41;;;;;;;28.57;25.50;;;;;;;15.74;100.00;101561.56;4981670;28;20227;-73
2021/06/07 01:33:09;;;;;;;28.13;25.07;;;;;;;15.70;100.00;101559.69;4982105;28;20185;-74
2021/06/07 01:35:35;;;;;;;30.50;26.43;;;;;;;15.63;100.00;101564.63;4997630;28;20307;-73
2021/06/07 01:38:05;;;;;;;28.00;24.97;;;;;;;15.56;100.00;101558.66;4998295;28;20696;-73
2021/06/07 01:40:35;;;;;;;27.80;24.80;;;;;;;15.65;100.00;101559.69;4997185;28;20236;-74
2021/06/07 01:43:04;;;;;;;27.73;24.73;;;;;;;15.65;100.00;101559.69;4981742;28;20215;-74
2021/06/07 01:45:35;;;;;;;30.17;25.27;;;;;;;-138.14;100.00;78306.34;4996835;28;20709;-75
2021/06/07 01:48:05;;;;;;;27.90;24.97;;;;;;;-138.14;99.12;63448.66;4998944;28;20208;-73
2021/06/07 01:50:31;;;;;;;28.33;24.63;;;;;;;-138.14;100.00;63448.66;4997304;28;20223;-74
2021/06/07 01:52:57;;;;;;;26.83;23.97;;;;;;;-138.14;100.00;63448.66;4997645;28;20563;-74
2021/06/07 01:55:25;;;;;;;28.20;24.67;;;;;;;-138.14;100.00;63448.66;4980866;28;20220;-75
2021/06/07 01:57:52;;;;;;;30.77;25.77;;;;;;;-138.14;100.00;63448.66;5014171;28;20212;-72
2021/06/07 02:00:22;;;;;;;27.90;25.00;;;;;;;-138.14;100.00;63448.66;4997112;28;20211;-72
2021/06/07 02:02:48;;;;;;;28.25;24.92;;;;;;;15.44;100.00;101550.78;4997324;28;20181;-75
2021/06/07 02:05:16;;;;;;;29.07;24.63;;;;;;;-138.14;100.00;101550.78;4996657;28;20183;-73
2021/06/07 02:07:47;;;;;;;27.93;24.57;;;;;;;-138.14;100.00;63448.66;4998280;28;20184;-74
2021/06/07 02:10:13;;;;;;;26.35;23.38;;;;;;;-138.14;100.00;63448.66;4996516;28;20208;-74
2021/06/07 02:12:44;;;;;;;30.73;24.90;;;;;;;-138.14;100.00;63448.66;4998031;28;20184;-74
2021/06/07 02:15:11;;;;;;;27.73;24.80;;;;;;;-138.14;100.00;63448.66;5023567;28;20262;-74
2021/06/07 02:17:42;;;;;;;28.40;24.70;;;;;;;-138.14;100.00;63448.66;5017742;28;20190;-74
2021/06/07 02:20:16;;;;;;;30.57;25.43;;;;;;;-138.14;100.00;63448.66;5016826;28;20208;-73
2021/06/07 02:22:43;;;;;;;28.67;25.30;;;;;;;-138.14;100.00;63448.66;5000942;28;20191;-75
2021/06/07 02:25:11;;;;;;;29.67;24.60;;;;;;;15.47;100.00;101552.13;5016660;28;20587;-74
2021/06/07 02:27:38;;;;;;;30.23;25.37;;;;;;;15.30;100.00;101551.66;5001093;28;20197;-75
2021/06/07 02:30:06;;;;;;;28.47;25.40;;;;;;;15.48;100.00;101543.63;5033628;28;20261;-76
2021/06/07 02:32:35;;;;;;;28.75;24.73;;;;;;;15.45;100.00;101551.59;5014903;28;20697;-74
2021/06/07 02:35:03;;;;;;;29.70;26.10;;;;;;;15.56;100.00;101553.16;5017348;28;20279;-74
2021/06/07 02:37:29;;;;;;;31.83;25.57;;;;;;;15.62;100.00;101555.63;4991792;28;20215;-74
2021/06/07 02:39:56;;;;;;;32.50;25.17;;;;;;;15.76;100.00;101553.06;5033703;28;20218;-73
2021/06/07 02:42:22;;;;;;;31.27;25.10;;;;;;;15.75;100.00;101554.13;5031139;28;20231;-73
2021/06/07 02:44:51;;;;;;;30.83;25.57;;;;;;;15.77;100.00;101550.84;5017271;28;20253;-75
2021/06/07 02:47:17;;;;;;;30.10;25.37;;;;;;;15.44;100.00;101547.22;5016007;28;20236;-74
2021/06/07 02:49:43;;;;;;;31.87;25.73;;;;;;;15.51;100.00;101545.81;5016982;28;20203;-74
2021/06/07 02:52:10;;;;;;;32.07;25.10;;;;;;;15.61;100.00;101550.41;5014567;28;20227;-74
2021/06/07 02:54:37;;;;;;;31.10;25.23;;;;;;;15.77;100.00;101556.31;5017573;28;20187;-73
2021/06/07 02:57:06;;;;;;;35.05;27.25;;;;;;;15.75;100.00;101556.88;4999550;28;20224;-73
2021/06/07 02:59:34;;;;;;;31.95;26.55;;;;;;;15.69;100.00;101558.03;5016931;28;20211;-75
2021/06/07 03:02:00;;;;;;;30.80;26.23;;;;;;;15.80;100.00;101557.66;5030296;28;20296;-74
2021/06/07 03:04:26;;;;;;;35.22;26.13;;;;;;;15.72;100.00;101557.47;5033322;28;20218;-75
2021/06/07 03:06:54;;;;;;;33.70;26.00;;;;;;;15.64;100.00;101555.31;5032454;28;20709;-74
2021/06/07 03:09:23;;;;;;;35.67;26.23;;;;;;;15.66;100.00;101559.41;5031941;28;20207;-74
2021/06/07 03:11:51;;;;;;;34.63;26.33;;;;;;;15.66;100.00;101553.94;5010088;28;20639;-74
2021/06/07 03:14:17;;;;;;;37.60;26.23;;;;;;;15.69;100.00;101558.03;5016951;28;20275;-75
2021/06/07 03:16:43;;;;;;;35.00;26.17;;;;;;;15.71;100.00;101566.78;5015176;28;20727;-73
2021/06/07 03:19:13;;;;;;;36.67;26.87;;;;;;;15.64;100.00;101556.16;5032977;28;20203;-73
2021/06/07 03:21:39;;;;;;;33.73;26.73;;;;;;;15.69;100.00;101552.53;5028233;28;20227;-73
2021/06/07 03:24:09;;;;;;;39.47;26.00;;;;;;;15.73;100.00;101553.59;5048868;28;20734;-74
2021/06/07 03:26:36;;;;;;;35.53;26.33;;;;;;;15.63;100.00;101559.16;4998907;28;20231;-74
2021/06/07 03:29:05;;;;;;;38.83;26.23;;;;;;;15.56;100.00;101559.47;5049181;28;20204;-74
2021/06/07 03:31:35;;;;;;;35.13;26.00;;;;;;;15.71;100.00;101562.09;5031047;28;20781;-74
2021/06/07 03:34:01;;;;;;;35.03;27.13;;;;;;;15.71;100.00;101566.78;5048636;28;20939;-75
2021/06/07 03:36:29;;;;;;;34.57;26.13;;;;;;;15.78;100.00;101560.69;5031625;28;20224;-72
2021/06/07 03:38:56;;;;;;;34.17;24.37;;;;;;;15.68;100.00;101559.94;5017276;28;20215;-74
2021/06/07 03:41:22;;;;;;;33.67;25.83;;;;;;;-138.14;100.00;63448.66;5013004;28;20224;-73
2021/06/07 03:43:51;;;;;;;33.75;24.92;;;;;;;-138.14;100.00;63448.66;5015742;28;20736;-73
2021/06/07 03:46:17;;;;;;;37.38;26.65;;;;;;;-138.14;100.00;63448.66;5015558;28;20246;-74
2021/06/07 03:48:44;;;;;;;38.38;25.30;;;;;;;-138.14;100.00;63448.66;5015311;28;20196;-75
2021/06/07 03:51:11;;;;;;;33.47;25.03;;;;;;;15.86;100.00;101551.06;5030827;28;20643;-75
2021/06/07 03:53:43;;;;;;;30.48;23.98;;;;;;;15.71;100.00;101550.34;5024481;28;20180;-75
2021/06/07 03:56:09;;;;;;;31.43;23.83;;;;;;;15.67;100.00;101555.56;5039290;28;20222;-75
2021/06/07 03:58:35;;;;;;;32.20;23.80;;;;;;;15.66;100.00;101553.09;5029138;28;20299;-72
2021/06/07 04:01:04;;;;;;;33.07;24.07;;;;;;;15.82;100.00;101559.03;4999756;28;20641;-75
2021/06/07 04:03:34;;;;;;;37.33;24.43;;;;;;;15.80;100.00;101558.50;5014344;28;20207;-74
2021/06/07 04:06:00;;;;;;;35.83;25.00;;;;;;;15.89;100.00;101558.69;5031727;28;20284;-76
2021/06/07 04:08:29;;;;;;;32.03;24.87;;;;;;;15.82;100.00;101559.03;5033808;28;20210;-73
2021/06/07 04:10:59;;;;;;;30.98;23.48;;;;;;;15.68;100.00;101557.22;5047905;28;20269;-74
2021/06/07 04:13:28;;;;;;;37.73;24.13;;;;;;;15.80;100.00;101561.25;5015139;28;20187;-72
2021/06/07 04:15:54;;;;;;;34.80;24.23;;;;;;;15.86;100.00;101556.56;5031664;28;20273;-75
2021/06/07 04:18:20;;;;;;;33.78;24.05;;;;;;;15.84;100.00;101564.22;5032344;28;20235;-73
2021/06/07 04:20:51;;;;;;;35.37;24.83;;;;;;;15.83;100.00;101559.84;5016699;28;20308;-73
2021/06/07 04:23:18;;;;;;;38.40;25.13;;;;;;;15.89;100.00;101559.50;5004091;28;20187;-75
2021/06/07 04:25:47;;;;;;;35.25;24.25;;;;;;;15.88;100.00;101563.38;5015954;28;20230;-76
2021/06/07 04:28:16;;;;;;;34.43;24.23;;;;;;;15.87;100.00;101561.72;5003454;28;20602;-74
2021/06/07 04:30:45;;;;;;;28.85;21.90;;;;;;;16.00;100.00;101554.78;5004885;28;20211;-74
2021/06/07 04:33:12;;;;;;;31.17;22.48;;;;;;;15.62;100.00;101561.09;4999798;28;20225;-75
2021/06/07 04:35:39;;;;;;;32.73;22.97;;;;;;;15.80;100.00;101561.25;5015576;28;20349;-74
2021/06/07 04:38:08;;;;;;;33.10;23.63;;;;;;;15.68;100.00;101557.22;5032778;28;20214;-74
2021/06/07 04:40:39;;;;;;;35.42;23.48;;;;;;;15.71;100.00;101562.09;5030711;28;20264;-74
2021/06/07 04:43:07;;;;;;;29.33;21.87;;;;;;;15.76;100.00;101558.53;5031071;28;20199;-74
2021/06/07 04:45:33;;;;;;;26.53;21.23;;;;;;;15.67;100.00;101557.50;5029424;28;20568;-74
2021/06/07 04:48:04;;;;;;;25.10;21.05;;;;;;;15.50;100.00;101548.84;5032751;28;20734;-75
2021/06/07 04:50:37;;;;;;;26.73;21.23;;;;;;;15.46;100.00;101556.78;5015071;28;20236;-73
2021/06/07 04:53:04;;;;;;;26.97;21.03;;;;;;;15.51;100.00;101550.44;5032183;28;20176;-75
2021/06/07 04:55:42;;;;;;;27.25;20.98;;;;;;;15.41;100.00;101558.75;5025636;28;20231;-75
2021/06/07 04:58:16;;;;;;;27.45;20.20;;;;;;;15.67;100.00;101565.72;5009484;28;20191;-72
2021/06/07 05:00:44;;;;;;;29.83;20.70;;;;;;;15.65;100.00;101568.72;5014495;28;20374;-74
2021/06/07 05:03:13;;;;;;;25.83;20.57;;;;;;;15.64;100.00;101560.78;5032461;28;20223;-74
2021/06/07 05:05:45;;;;;;;23.20;19.17;;;;;;;15.65;100.00;101562.44;5034709;28;20226;-75
2021/06/07 05:08:14;;;;;;;24.87;19.83;;;;;;;15.76;100.00;101564.00;5035668;28;20543;-74
2021/06/07 05:10:41;;;;;;;21.95;18.08;;;;;;;15.88;100.00;101562.56;5018020;28;20794;-75
2021/06/07 05:13:08;;;;;;;22.05;17.55;;;;;;;16.02;100.00;101558.06;5034756;28;20211;-74
2021/06/07 05:15:37;;;;;;;20.42;17.48;;;;;;;15.94;100.00;101556.75;5002632;28;20243;-75
2021/06/07 05:18:06;;;;;;;20.20;16.58;;;;;;;16.12;100.00;101558.81;5012366;28;20263;-77
2021/06/07 05:20:34;;;;;;;19.38;17.23;;;;;;;16.12;100.00;101564.28;5001824;28;20232;-74
2021/06/07 05:23:01;;;;;;;19.33;16.77;;;;;;;16.24;100.00;101556.53;5030776;28;20196;-74
2021/06/07 05:25:28;;;;;;;20.57;16.57;;;;;;;16.18;100.00;101563.16;5014735;28;20269;-73
2021/06/07 05:27:57;;;;;;;20.33;16.07;;;;;;;16.09;100.00;101561.31;5016224;28;20176;-73
2021/06/07 05:30:26;;;;;;;19.15;16.27;;;;;;;16.09;100.00;101561.31;5013537;28;20180;-73
2021/06/07 05:33:08;;;;;;;17.17;15.18;;;;;;;16.09;100.00;101561.31;5021527;28;20196;-74
2021/06/07 05:35:44;;;;;;;17.73;15.82;;;;;;;16.46;100.00;101559.63;5014407;28;20592;-74
2021/06/07 05:38:11;;;;;;;17.52;15.02;;;;;;;16.43;100.00;101565.72;5015464;28;20246;-74
2021/06/07 05:40:42;;;;;;;16.73;14.27;;;;;;;16.43;100.00;101568.44;5013327;28;20247;-75
2021/06/07 05:43:09;;;;;;;14.85;13.38;;;;;;;16.42;100.00;101575.03;5000502;28;20188;-74
2021/06/07 05:45:38;;;;;;;15.77;14.07;;;;;;;16.38;100.00;101572.03;5029674;28;20667;-75
2021/06/07 05:48:07;;;;;;;15.82;14.15;;;;;;;-138.14;100.00;63448.66;5014777;28;20192;-73
2021/06/07 05:50:41;;;;;;;15.00;13.48;;;;;;;16.08;100.00;101576.94;5016887;28;20248;-73
2021/06/07 05:53:11;;;;;;;14.05;12.70;;;;;;;-138.14;100.00;63448.66;5018980;28;20229;-73
2021/06/07 05:55:42;;;;;;;14.85;13.45;;;;;;;-138.14;100.00;63448.66;4999896;28;20260;-76
2021/06/07 05:58:17;;;;;;;14.52;13.02;;;;;;;-138.14;100.00;63448.66;5018086;28;20184;-74
2021/06/07 06:00:48;;;;;;;14.45;12.93;;;;;;;-138.14;100.00;63448.66;5000643;28;20231;-73
2021/06/07 06:03:18;;;;;;;13.55;12.15;;;;;;;-138.14;100.00;63448.66;5001195;28;20552;-74
2021/06/07 06:05:44;;;;;;;13.98;12.57;;;;;;;-138.14;100.00;63448.66;5032768;28;20563;-74
2021/06/07 06:08:11;;;;;;;13.45;12.05;;;;;;;-138.14;100.00;63448.66;5033833;28;20179;-73
2021/06/07 06:10:37;;;;;;;14.05;12.55;;;;;;;-138.14;100.00;63448.66;5032423;28;20306;-73
2021/06/07 06:13:08;;;;;;;13.85;12.57;;;;;;;16.78;100.00;101577.16;5017507;28;20186;-72
2021/06/07 06:15:35;;;;;;;13.45;12.10;;;;;;;-138.14;100.00;63448.66;5016855;28;20224;-73
2021/06/07 06:18:03;;;;;;;14.40;12.40;;;;;;;-138.14;nan;63448.66;5018122;28;20209;-73
2021/06/07 06:20:33;;;;;;;14.98;12.57;;;;;;;-138.14;100.00;63448.66;5000105;28;20230;-75
2021/06/07 06:23:00;;;;;;;14.23;12.80;;;;;;;-138.14;100.00;63448.66;5033321;28;20245;-75
2021/06/07 06:25:26;;;;;;;14.82;12.80;;;;;;;-138.14;100.00;63448.66;5017426;28;20223;-74
2021/06/07 06:27:52;;;;;;;15.73;14.10;;;;;;;-138.14;100.00;63448.66;5009784;28;20262;-74
2021/06/07 06:30:25;;;;;;;19.17;15.18;;;;;;;-138.14;100.00;63448.66;5013087;28;20211;-73
2021/06/07 06:32:54;;;;;;;18.02;16.13;;;;;;;-138.14;100.00;63448.66;4998351;28;20185;-73
2021/06/07 06:35:20;;;;;;;17.67;15.77;;;;;;;-138.14;100.00;63448.66;4997041;28;20184;-74
2021/06/07 06:37:47;;;;;;;18.48;16.58;;;;;;;16.25;100.00;101569.97;5014970;28;20184;-73
2021/06/07 06:40:19;;;;;;;18.17;15.70;;;;;;;-138.14;100.00;63448.66;5021499;28;20204;-75
2021/06/07 06:42:45;;;;;;;19.92;16.15;;;;;;;16.25;100.00;101569.97;5024943;28;20193;-74
2021/06/07 06:45:15;;;;;;;18.63;15.77;;;;;;;-138.14;100.00;63448.66;5035090;28;20693;-72
2021/06/07 06:47:42;;;;;;;19.67;16.40;;;;;;;-138.14;100.00;63448.66;5044892;28;20188;-75
2021/06/07 06:50:08;;;;;;;18.67;16.65;;;;;;;-138.14;100.00;63448.66;5041948;28;20212;-75
2021/06/07 06:52:35;;;;;;;17.65;15.85;;;;;;;-138.14;100.00;63448.66;5060705;28;20179;-74
2021/06/07 06:55:01;;;;;;;18.67;16.20;;;;;;;-138.14;100.00;63448.66;5061276;28;20196;-74
2021/06/07 06:57:28;;;;;;;19.08;17.00;;;;;;;-138.14;100.00;63448.66;5042783;28;20220;-74
2021/06/07 06:59:55;;;;;;;18.58;16.67;;;;;;;-138.14;100.00;63448.66;5044780;28;20302;-75
2021/06/07 07:02:21;;;;;;;21.17;16.50;;;;;;;16.67;100.00;101595.63;5023057;28;20224;-74
2021/06/07 07:04:48;;;;;;;18.05;15.95;;;;;;;16.90;100.00;101600.31;5043924;28;20191;-74
2021/06/07 07:07:14;;;;;;;17.95;16.05;;;;;;;16.50;100.00;101608.16;5010413;28;20228;-72
2021/06/07 07:09:43;;;;;;;19.48;15.75;;;;;;;-138.14;100.00;63448.66;5023689;28;20204;-73
2021/06/07 07:12:13;;;;;;;18.55;16.58;;;;;;;16.76;100.00;101604.88;5024173;28;20217;-74
2021/06/07 07:14:40;;;;;;;18.45;15.23;;;;;;;16.68;100.00;101611.00;5002928;28;20346;-74
2021/06/07 07:17:06;;;;;;;16.92;15.13;;;;;;;16.93;100.00;101612.66;5017140;28;20236;-73
2021/06/07 07:19:41;;;;;;;17.30;14.43;;;;;;;16.89;100.00;101617.91;5002168;28;20230;-73
2021/06/07 07:22:08;;;;;;;16.42;14.35;;;;;;;16.79;100.00;101615.25;5037771;28;20227;-74
2021/06/07 07:24:35;;;;;;;16.50;14.35;;;;;;;16.76;100.00;101615.84;5052370;28;20214;-74
2021/06/07 07:27:01;;;;;;;16.40;14.57;;;;;;;16.88;100.00;101619.00;5034134;28;20261;-74
2021/06/07 07:29:31;;;;;;;17.95;15.57;;;;;;;16.84;100.00;101617.16;5019661;28;20203;-75
2021/06/07 07:32:03;;;;;;;18.60;15.38;;;;;;;17.13;100.00;101611.31;5017468;28;20219;-74
2021/06/07 07:34:30;;;;;;;19.55;15.90;;;;;;;17.02;100.00;101618.03;5052290;28;20191;-74
2021/06/07 07:36:56;;;;;;;19.50;16.30;;;;;;;16.90;100.00;101622.28;5018036;28;20288;-73
2021/06/07 07:39:23;;;;;;;19.42;16.25;;;;;;;16.75;100.00;101625.19;5035419;28;20199;-73
2021/06/07 07:41:51;;;;;;;20.83;17.13;;;;;;;16.72;100.00;101620.28;5016404;28;20292;-74
2021/06/07 07:44:18;;;;;;;19.25;15.95;;;;;;;16.64;100.00;101620.88;5019245;28;20250;-74
2021/06/07 07:46:47;;;;;;;19.90;16.77;;;;;;;16.91;100.00;101621.19;5017669;28;20219;-73
2021/06/07 07:49:16;;;;;;;20.88;16.33;;;;;;;16.95;100.00;101625.00;5017814;28;20218;-74
2021/06/07 07:51:43;;;;;;;18.73;16.55;;;;;;;16.77;100.00;101625.72;5016701;28;20222;-74
2021/06/07 07:54:10;;;;;;;18.70;16.73;;;;;;;17.01;100.00;101629.31;5034196;28;20660;-73
2021/06/07 07:56:37;;;;;;;19.92;16.45;;;;;;;17.03;100.00;101621.59;5021016;28;20218;-74
2021/06/07 07:59:06;;;;;;;18.50;15.85;;;;;;;16.44;100.00;101622.19;5022659;28;20215;-73
2021/06/07 08:01:32;;;;;;;18.02;15.65;;;;;;;16.81;100.00;101634.19;5019808;28;20228;-73
2021/06/07 08:04:01;;;;;;;17.20;15.07;;;;;;;16.77;100.00;101631.19;5021061;28;20183;-73
2021/06/07 08:06:29;;;;;;;15.88;14.13;;;;;;;17.04;100.00;101628.75;5037806;28;20223;-74
2021/06/07 08:08:56;;;;;;;16.88;14.48;;;;;;;17.27;100.00;101623.28;5021350;28;20218;-74
2021/06/07 08:11:22;;;;;;;14.77;13.27;;;;;;;17.44;100.00;101618.94;5020330;28;20230;-72
2021/06/07 08:13:49;;;;;;;16.33;14.23;;;;;;;17.57;100.00;101622.91;5021705;28;20187;-74
2021/06/07 08:16:16;;;;;;;15.00;13.10;;;;;;;17.59;100.00;101624.25;5036650;28;20408;-75
2021/06/07 08:18:42;;;;;;;13.80;12.40;;;;;;;17.53;100.00;101617.19;5037760;28;20759;-75
2021/06/07 08:21:09;;;;;;;14.23;12.57;;;;;;;17.59;100.00;101618.75;5035734;28;20608;-73
2021/06/07 08:23:38;;;;;;;14.32;12.60;;;;;;;17.86;100.00;101613.44;5018892;28;20828;-73
2021/06/07 08:26:05;;;;;;;14.85;12.48;;;;;;;17.84;100.00;101616.47;5031949;28;20776;-73
2021/06/07 08:28:32;;;;;;;17.42;13.60;;;;;;;17.63;100.00;101616.22;5038012;28;20227;-75
2021/06/07 08:30:58;;;;;;;14.30;12.80;;;;;;;17.94;100.00;101607.28;5019529;28;20238;-73
2021/06/07 08:33:25;;;;;;;14.02;12.57;;;;;;;17.69;100.00;101610.41;5019749;28;20255;-74
2021/06/07 08:35:51;;;;;;;14.27;12.82;;;;;;;18.01;100.00;101613.22;5029597;28;20274;-74
2021/06/07 08:38:18;;;;;;;14.05;12.65;;;;;;;17.46;100.00;101622.22;5053442;28;20265;-74
2021/06/07 08:40:46;;;;;;;13.95;12.25;;;;;;;17.37;100.00;101618.47;5018964;28;20313;-73
2021/06/07 08:43:13;;;;;;;13.52;12.07;;;;;;;17.69;100.00;101604.91;5003196;28;20633;-75
2021/06/07 08:45:42;;;;;;;13.25;11.85;;;;;;;17.98;100.00;101619.31;5018699;28;20223;-74
2021/06/07 08:48:08;;;;;;;14.30;11.40;;;;;;;17.95;100.00;101615.22;5036685;28;20274;-76
2021/06/07 08:50:35;;;;;;;13.10;11.07;;;;;;;18.18;100.00;101615.16;5001635;28;20597;-75
2021/06/07 08:53:01;;;;;;;12.85;11.55;;;;;;;17.93;100.00;101611.13;5018791;28;20195;-74
2021/06/07 08:55:32;;;;;;;12.35;11.05;;;;;;;17.94;100.00;101618.25;5030580;28;20215;-74
2021/06/07 08:58:01;;;;;;;13.45;11.93;;;;;;;17.99;100.00;101618.19;5020518;28;20305;-74
2021/06/07 09:00:34;;;;;;;12.60;11.35;;;;;;;17.67;100.00;101623.59;5034781;28;20198;-73
2021/06/07 09:03:02;;;;;;;11.85;10.65;;;;;;;18.03;100.00;101617.31;5019139;28;20663;-74
2021/06/07 09:05:31;;;;;;;12.60;11.25;;;;;;;18.14;100.00;101616.88;5017752;28;20262;-74
2021/06/07 09:08:03;;;;;;;13.05;11.57;;;;;;;17.83;100.00;101617.59;5018535;28;20226;-73
2021/06/07 09:10:32;;;;;;;14.52;12.18;;;;;;;17.92;100.00;101615.81;5002314;28;20234;-74
2021/06/07 09:13:00;;;;;;;13.10;11.70;;;;;;;18.05;100.00;101615.06;5002395;28;20338;-73
2021/06/07 09:15:38;;;;;;;13.27;11.57;;;;;;;18.06;100.00;101622.22;5018034;28;20223;-74
2021/06/07 09:18:05;;;;;;;12.38;11.18;;;;;;;17.97;100.00;101624.00;5020363;28;20260;-74
2021/06/07 09:20:32;;;;;;;12.82;11.35;;;;;;;18.26;100.00;101614.50;5001606;28;20220;-74
2021/06/07 09:23:02;;;;;;;10.50;9.45;;;;;;;18.29;100.00;101621.31;5050917;28;20180;-75
2021/06/07 09:25:31;;;;;;;10.45;9.45;;;;;;;18.81;100.00;101619.88;5016896;28;20234;-74
2021/06/07 09:28:23;;;;;;;11.48;10.27;;;;;;;18.95;100.00;101615.19;5036071;28;20722;-74
2021/06/07 09:30:56;;;;;;;11.65;10.45;;;;;;;18.47;100.00;101613.03;5033951;28;20319;-73
2021/06/07 09:33:30;;;;;;;11.80;10.57;;;;;;;18.25;100.00;101614.78;5017723;28;20184;-74
2021/06/07 09:36:24;;;;;;;12.40;11.10;;;;;;;18.47;100.00;101620.50;5034791;28;20222;-74
2021/06/07 09:39:09;;;;;;;11.82;10.63;;;;;;;18.48;100.00;101613.84;5035520;28;20204;-74
2021/06/07 09:41:56;;;;;;;14.00;11.80;;;;;;;18.51;100.00;101614.06;5033177;28;20247;-74
2021/06/07 09:44:46;;;;;;;11.52;10.20;;;;;;;18.38;100.00;101609.34;5022652;28;20353;-74
2021/06/07 09:47:28;;;;;;;11.75;10.55;;;;;;;18.32;100.00;101616.03;5002179;28;20305;-73
2021/06/07 09:50:03;;;;;;;11.60;10.45;;;;;;;18.28;100.00;101620.50;5020571;28;20264;-75
2021/06/07 09:52:48;;;;;;;12.07;10.88;;;;;;;17.71;100.00;101624.66;5033551;28;20216;-73
2021/06/07 09:55:17;;;;;;;12.23;10.93;;;;;;;18.24;100.00;101625.00;5029786;28;20277;-75
2021/06/07 09:57:50;;;;;;;12.45;11.25;;;;;;;18.30;100.00;101629.28;5018724;28;20179;-74
2021/06/07 10:00:46;;;;;;;12.45;10.95;;;;;;;18.22;100.00;101627.22;5033107;28;20222;-73
2021/06/07 10:03:15;;;;;;;12.05;10.70;;;;;;;18.46;100.00;101627.94;5017536;28;20203;-74
2021/06/07 10:05:44;;;;;;;13.43;11.98;;;;;;;18.15;100.00;101631.47;5032732;28;20771;-74
2021/06/07 10:08:10;;;;;;;13.60;11.60;;;;;;;18.32;100.00;101629.81;5018429;28;20326;-75
2021/06/07 10:10:36;;;;;;;15.02;11.80;;;;;;;18.32;100.00;101637.25;4999884;28;20310;-73
2021/06/07 10:13:10;;;;;;;13.35;11.95;;;;;;;18.09;100.00;101632.63;5017013;28;20262;-73
2021/06/07 10:15:38;;;;;;;13.10;11.80;;;;;;;18.36;100.00;101627.28;5000901;28;20251;-74
2021/06/07 10:18:06;;;;;;;12.63;11.43;;;;;;;18.51;100.00;101630.59;5017490;28;20191;-73
2021/06/07 10:23:01;;;;;;;16.90;13.75;;;;;;;18.25;100.00;101643.13;5029926;28;20177;-75
2021/06/07 10:25:28;;;;;;;13.88;12.48;;;;;;;18.17;100.00;101629.22;5029010;28;20230;-75
2021/06/07 10:27:54;;;;;;;14.48;12.98;;;;;;;17.97;100.00;101634.19;5031011;28;20176;-72
2021/06/07 10:30:25;;;;;;;14.88;13.10;;;;;;;18.35;100.00;101631.97;5025668;28;20188;-74
2021/06/07 10:32:51;;;;;;;15.00;13.60;;;;;;;18.40;100.00;101640.13;4980599;28;20319;-73
2021/06/07 10:35:30;;;;;;;16.50;13.88;;;;;;;18.59;100.00;101632.66;4980269;28;20200;-74
2021/06/07 10:38:10;;;;;;;14.05;12.63;;;;;;;18.52;100.00;101627.53;4982123;28;20188;-74
2021/06/07 10:40:43;;;;;;;14.45;12.73;;;;;;;18.50;100.00;101637.22;4997644;28;20600;-73
2021/06/07 10:43:14;;;;;;;15.60;13.70;;;;;;;18.44;100.00;101632.91;4997543;28;20192;-75
2021/06/07 10:45:42;;;;;;;14.13;12.63;;;;;;;18.48;100.00;101639.47;4997142;28;20578;-72
2021/06/07 10:48:09;;;;;;;14.20;12.75;;;;;;;18.49;100.00;101630.06;4981789;28;20672;-74
2021/06/07 10:50:44;;;;;;;15.43;13.73;;;;;;;18.56;100.00;101641.50;4980101;28;20251;-74
2021/06/07 10:53:24;;;;;;;15.60;13.57;;;;;;;18.62;100.00;101627.34;4999111;28;20199;-75
2021/06/07 10:56:04;;;;;;;16.27;14.55;;;;;;;18.60;100.00;101634.28;4996037;28;20235;-75
2021/06/07 10:58:31;;;;;;;17.25;14.15;;;;;;;18.28;100.00;101631.53;4998871;28;20200;-74
2021/06/07 11:00:58;;;;;;;15.40;13.68;;;;;;;18.60;100.00;101628.78;5011784;28;20301;-73
2021/06/07 11:03:29;;;;;;;15.43;13.77;;;;;;;18.48;100.00;101631.19;4981692;28;20187;-74
2021/06/07 11:05:59;;;;;;;15.20;13.35;;;;;;;19.07;100.00;101624.63;4996286;28;20220;-74
2021/06/07 11:08:28;;;;;;;17.55;15.13;;;;;;;19.03;100.00;101636.59;4997048;28;20244;-73
2021/06/07 11:11:21;;;;;;;18.17;15.20;;;;;;;18.92;100.00;101635.91;4986448;28;20230;-80